Aérodrome :
LOGIN :

S'inscrire | Disclaimer

   EN    FR    IT 

 










Légende :    VFR   VFR Marginal   IFR   IFR Intensif   IFR Très Intensif
Visi : 
Plafond : 
>= 8 km
>= 3000ft
5 à 8 km
1000 à 3000 ft
1500m à 5 km
500 à 1000 ft
800 à 1500m
200 à 500 ft
< 800m
< 200 ft
Symboles :   Orages  Brouillard  Fortes neiges  Fortes précipitations  Vent > 20 kt
SIGMETs :   Divers  Orages  Givrage  Turbulence  Onde Orograph.  Cendres Volcan.







- Altitude de l'aérodrome : 106 ft
- Code IATA : XDA
- Voir les cartes d'approche


LFBY - Dax Seyresse

DERNIER METAR :
  • 011730Z AUTO VRB02KT 9999 // ////// 16/06 Q1016

METARs EXPIRÉS :
  • 011700Z AUTO 28006KT 9999 // NSC 16/07 Q1016
  • 011630Z AUTO 28007KT 250V320 9999 // NSC 17/06 Q1016
  • 011600Z 28006KT 260V320 CAVOK 17/06 Q1015
  • 011500Z 27008KT 230V300 CAVOK 18/05 Q1015

TAF TAF LFBY
Valide du 01 à 09h jusqu'au 01 à 18h UTC


010800Z 0109/0118 18007KT 9999 SCT030 BKN040
Pas de NOTAMs connus pour ce terrain.
1 SIGMET publié pour la FIR Bordeaux (LFBB) :
 
Turbulence forte
LFBB SIGMET 2 VALID 011600/012000 LFPW
LFBB BORDEAUX FIR/UIR SEV TURB OBS WI N4530 W00145 - N4630 W00130 - N4630 W00015 - N4715 W00015 - N4630 E00100 SFC/FL040 STNR NC=



MET'MAP, la Météo Aéronautique d'un coup d'oeil ! - Copyright ORBIFLY Décembre 2007 - Disclaimer

ORBIFLY MET'MAP TEAM :

Programmation & Développement : Alexandra Zaïnal
Conception & Développement : Baudouin d'Aumeries
Co-Programmation & Développement : Marc-Olivier Méhu
Soutien technique & logistique : Manuel Goepfert

Contact : metmap@orbifly.com




SOURCES & CREDITS :

   NOAA